sensor_id;sensor_type;location;lat;lon;timestamp;P1;durP1;ratioP1;P2;durP2;ratioP2
49948;SDS011;35840;45.982;8.890;2023-07-13T00:01:32;5.57;;;2.15;;
49948;SDS011;35840;45.982;8.890;2023-07-13T00:03:59;4.75;;;2.40;;
49948;SDS011;35840;45.982;8.890;2023-07-13T00:06:26;4.75;;;2.95;;
49948;SDS011;35840;45.982;8.890;2023-07-13T00:08:56;9.02;;;2.95;;
49948;SDS011;35840;45.982;8.890;2023-07-13T00:11:23;8.43;;;2.60;;
49948;SDS011;35840;45.982;8.890;2023-07-13T00:13:50;4.28;;;2.30;;
49948;SDS011;35840;45.982;8.890;2023-07-13T00:16:17;4.25;;;2.33;;
49948;SDS011;35840;45.982;8.890;2023-07-13T00:18:45;3.03;;;2.40;;
49948;SDS011;35840;45.982;8.890;2023-07-13T00:21:12;5.30;;;2.75;;
49948;SDS011;35840;45.982;8.890;2023-07-13T00:23:40;6.97;;;2.13;;
49948;SDS011;35840;45.982;8.890;2023-07-13T00:26:09;7.13;;;2.67;;
49948;SDS011;35840;45.982;8.890;2023-07-13T00:28:37;4.65;;;2.42;;
49948;SDS011;35840;45.982;8.890;2023-07-13T00:31:06;4.35;;;2.38;;
49948;SDS011;35840;45.982;8.890;2023-07-13T00:33:34;7.53;;;2.72;;
49948;SDS011;35840;45.982;8.890;2023-07-13T00:36:01;3.05;;;2.50;;
49948;SDS011;35840;45.982;8.890;2023-07-13T00:38:29;4.47;;;2.20;;
49948;SDS011;35840;45.982;8.890;2023-07-13T00:40:56;7.40;;;2.72;;
49948;SDS011;35840;45.982;8.890;2023-07-13T00:43:25;4.07;;;2.08;;
49948;SDS011;35840;45.982;8.890;2023-07-13T00:48:37;4.90;;;2.70;;
49948;SDS011;35840;45.982;8.890;2023-07-13T00:51:05;4.00;;;2.13;;
49948;SDS011;35840;45.982;8.890;2023-07-13T00:53:32;7.55;;;2.20;;
49948;SDS011;35840;45.982;8.890;2023-07-13T00:56:00;6.00;;;2.55;;
49948;SDS011;35840;45.982;8.890;2023-07-13T00:58:29;7.80;;;2.10;;
49948;SDS011;35840;45.982;8.890;2023-07-13T01:00:56;7.47;;;2.03;;
49948;SDS011;35840;45.982;8.890;2023-07-13T01:03:23;6.43;;;1.98;;
49948;SDS011;35840;45.982;8.890;2023-07-13T01:05:52;3.20;;;2.08;;
49948;SDS011;35840;45.982;8.890;2023-07-13T01:08:20;2.90;;;2.00;;
49948;SDS011;35840;45.982;8.890;2023-07-13T01:10:55;2.72;;;2.20;;
49948;SDS011;35840;45.982;8.890;2023-07-13T01:13:23;2.63;;;1.70;;
49948;SDS011;35840;45.982;8.890;2023-07-13T01:15:51;2.47;;;1.90;;
49948;SDS011;35840;45.982;8.890;2023-07-13T01:18:23;2.92;;;2.13;;
49948;SDS011;35840;45.982;8.890;2023-07-13T01:20:55;3.05;;;1.88;;
49948;SDS011;35840;45.982;8.890;2023-07-13T01:23:23;7.30;;;2.35;;
49948;SDS011;35840;45.982;8.890;2023-07-13T01:25:52;2.80;;;2.03;;
49948;SDS011;35840;45.982;8.890;2023-07-13T01:28:19;4.63;;;1.95;;
49948;SDS011;35840;45.982;8.890;2023-07-13T01:30:46;4.40;;;2.10;;
49948;SDS011;35840;45.982;8.890;2023-07-13T01:33:17;3.13;;;2.22;;
49948;SDS011;35840;45.982;8.890;2023-07-13T01:35:45;4.43;;;1.83;;
49948;SDS011;35840;45.982;8.890;2023-07-13T01:38:16;5.50;;;2.20;;
49948;SDS011;35840;45.982;8.890;2023-07-13T01:40:44;2.47;;;2.28;;
49948;SDS011;35840;45.982;8.890;2023-07-13T01:43:11;7.93;;;2.22;;
49948;SDS011;35840;45.982;8.890;2023-07-13T01:45:39;3.95;;;1.92;;
49948;SDS011;35840;45.982;8.890;2023-07-13T01:48:06;4.60;;;2.53;;
49948;SDS011;35840;45.982;8.890;2023-07-13T01:50:33;6.75;;;2.33;;
49948;SDS011;35840;45.982;8.890;2023-07-13T01:53:01;4.97;;;1.90;;
49948;SDS011;35840;45.982;8.890;2023-07-13T01:55:28;4.75;;;1.85;;
49948;SDS011;35840;45.982;8.890;2023-07-13T01:57:56;8.52;;;1.92;;
49948;SDS011;35840;45.982;8.890;2023-07-13T02:00:23;5.57;;;2.03;;
49948;SDS011;35840;45.982;8.890;2023-07-13T02:02:51;5.10;;;1.95;;
49948;SDS011;35840;45.982;8.890;2023-07-13T02:05:18;5.25;;;1.85;;
49948;SDS011;35840;45.982;8.890;2023-07-13T02:07:46;6.35;;;2.17;;
49948;SDS011;35840;45.982;8.890;2023-07-13T02:10:13;5.85;;;2.33;;
49948;SDS011;35840;45.982;8.890;2023-07-13T02:12:40;6.65;;;2.65;;
49948;SDS011;35840;45.982;8.890;2023-07-13T02:15:08;3.45;;;2.58;;
49948;SDS011;35840;45.982;8.890;2023-07-13T02:17:36;2.63;;;2.15;;
49948;SDS011;35840;45.982;8.890;2023-07-13T02:20:03;5.43;;;1.92;;
49948;SDS011;35840;45.982;8.890;2023-07-13T02:22:31;3.78;;;2.40;;
49948;SDS011;35840;45.982;8.890;2023-07-13T02:24:58;7.65;;;2.17;;
49948;SDS011;35840;45.982;8.890;2023-07-13T02:27:25;5.03;;;2.28;;
49948;SDS011;35840;45.982;8.890;2023-07-13T02:29:52;2.97;;;2.10;;
49948;SDS011;35840;45.982;8.890;2023-07-13T02:32:20;8.20;;;2.67;;
49948;SDS011;35840;45.982;8.890;2023-07-13T02:34:48;5.90;;;1.80;;
49948;SDS011;35840;45.982;8.890;2023-07-13T02:37:15;2.58;;;2.00;;
49948;SDS011;35840;45.982;8.890;2023-07-13T02:39:42;2.72;;;1.73;;
49948;SDS011;35840;45.982;8.890;2023-07-13T02:42:08;7.22;;;2.30;;
49948;SDS011;35840;45.982;8.890;2023-07-13T02:44:36;7.28;;;2.08;;
49948;SDS011;35840;45.982;8.890;2023-07-13T02:47:03;3.25;;;1.98;;
49948;SDS011;35840;45.982;8.890;2023-07-13T02:49:30;4.30;;;2.03;;
49948;SDS011;35840;45.982;8.890;2023-07-13T02:51:57;4.13;;;1.58;;
49948;SDS011;35840;45.982;8.890;2023-07-13T02:54:24;7.22;;;1.90;;
49948;SDS011;35840;45.982;8.890;2023-07-13T02:56:51;3.95;;;2.03;;
49948;SDS011;35840;45.982;8.890;2023-07-13T02:59:18;5.45;;;1.85;;
49948;SDS011;35840;45.982;8.890;2023-07-13T03:01:45;2.90;;;1.98;;
49948;SDS011;35840;45.982;8.890;2023-07-13T03:04:11;4.93;;;2.08;;
49948;SDS011;35840;45.982;8.890;2023-07-13T03:06:39;3.45;;;2.10;;
49948;SDS011;35840;45.982;8.890;2023-07-13T03:09:06;7.63;;;2.08;;
49948;SDS011;35840;45.982;8.890;2023-07-13T03:11:35;3.35;;;1.88;;
49948;SDS011;35840;45.982;8.890;2023-07-13T03:14:15;6.60;;;2.10;;
49948;SDS011;35840;45.982;8.890;2023-07-13T03:16:43;7.90;;;1.80;;
49948;SDS011;35840;45.982;8.890;2023-07-13T03:19:09;10.60;;;1.98;;
49948;SDS011;35840;45.982;8.890;2023-07-13T03:21:36;10.23;;;1.90;;
49948;SDS011;35840;45.982;8.890;2023-07-13T03:24:03;7.68;;;1.90;;
49948;SDS011;35840;45.982;8.890;2023-07-13T03:26:30;3.63;;;1.90;;
49948;SDS011;35840;45.982;8.890;2023-07-13T03:28:58;3.25;;;2.13;;
49948;SDS011;35840;45.982;8.890;2023-07-13T03:31:25;4.70;;;2.00;;
49948;SDS011;35840;45.982;8.890;2023-07-13T03:33:56;6.90;;;2.13;;
49948;SDS011;35840;45.982;8.890;2023-07-13T03:36:25;7.53;;;2.33;;
49948;SDS011;35840;45.982;8.890;2023-07-13T03:38:57;2.28;;;2.05;;
49948;SDS011;35840;45.982;8.890;2023-07-13T03:41:33;4.00;;;1.98;;
49948;SDS011;35840;45.982;8.890;2023-07-13T03:44:00;5.78;;;2.05;;
49948;SDS011;35840;45.982;8.890;2023-07-13T03:46:27;8.55;;;2.67;;
49948;SDS011;35840;45.982;8.890;2023-07-13T03:48:55;3.63;;;1.60;;
49948;SDS011;35840;45.982;8.890;2023-07-13T03:51:22;2.92;;;1.90;;
49948;SDS011;35840;45.982;8.890;2023-07-13T03:53:49;4.22;;;1.83;;
49948;SDS011;35840;45.982;8.890;2023-07-13T03:56:18;3.58;;;1.77;;
49948;SDS011;35840;45.982;8.890;2023-07-13T03:58:47;4.47;;;2.33;;
49948;SDS011;35840;45.982;8.890;2023-07-13T04:01:19;3.15;;;1.60;;
49948;SDS011;35840;45.982;8.890;2023-07-13T04:03:48;1.95;;;1.52;;
49948;SDS011;35840;45.982;8.890;2023-07-13T04:06:16;9.18;;;2.03;;
49948;SDS011;35840;45.982;8.890;2023-07-13T04:08:49;3.53;;;1.90;;
49948;SDS011;35840;45.982;8.890;2023-07-13T04:11:19;3.97;;;1.83;;
49948;SDS011;35840;45.982;8.890;2023-07-13T04:13:47;2.55;;;1.42;;
49948;SDS011;35840;45.982;8.890;2023-07-13T04:16:15;2.65;;;2.20;;
49948;SDS011;35840;45.982;8.890;2023-07-13T04:18:43;5.28;;;1.50;;
49948;SDS011;35840;45.982;8.890;2023-07-13T04:21:11;4.68;;;2.00;;
49948;SDS011;35840;45.982;8.890;2023-07-13T04:23:38;3.88;;;1.73;;
49948;SDS011;35840;45.982;8.890;2023-07-13T04:26:05;7.15;;;2.00;;
49948;SDS011;35840;45.982;8.890;2023-07-13T04:28:33;4.90;;;1.90;;
49948;SDS011;35840;45.982;8.890;2023-07-13T04:31:00;2.88;;;1.83;;
49948;SDS011;35840;45.982;8.890;2023-07-13T04:33:27;3.40;;;1.80;;
49948;SDS011;35840;45.982;8.890;2023-07-13T04:35:54;1.58;;;1.45;;
49948;SDS011;35840;45.982;8.890;2023-07-13T04:38:27;6.70;;;1.67;;
49948;SDS011;35840;45.982;8.890;2023-07-13T04:40:56;1.60;;;1.50;;
49948;SDS011;35840;45.982;8.890;2023-07-13T04:43:25;3.78;;;1.75;;
49948;SDS011;35840;45.982;8.890;2023-07-13T04:45:52;4.45;;;1.80;;
49948;SDS011;35840;45.982;8.890;2023-07-13T04:48:19;4.55;;;1.58;;
49948;SDS011;35840;45.982;8.890;2023-07-13T04:50:47;3.25;;;1.63;;
49948;SDS011;35840;45.982;8.890;2023-07-13T04:53:14;2.58;;;1.50;;
49948;SDS011;35840;45.982;8.890;2023-07-13T04:55:40;6.45;;;1.85;;
49948;SDS011;35840;45.982;8.890;2023-07-13T04:58:07;4.10;;;1.45;;
49948;SDS011;35840;45.982;8.890;2023-07-13T05:00:34;6.43;;;2.08;;
49948;SDS011;35840;45.982;8.890;2023-07-13T05:03:01;5.82;;;1.98;;
49948;SDS011;35840;45.982;8.890;2023-07-13T05:05:29;10.43;;;2.53;;
49948;SDS011;35840;45.982;8.890;2023-07-13T05:07:56;7.20;;;2.15;;
49948;SDS011;35840;45.982;8.890;2023-07-13T05:10:23;2.30;;;1.90;;
49948;SDS011;35840;45.982;8.890;2023-07-13T05:12:50;3.42;;;2.05;;
49948;SDS011;35840;45.982;8.890;2023-07-13T05:15:17;4.90;;;1.85;;
49948;SDS011;35840;45.982;8.890;2023-07-13T05:17:48;6.00;;;1.98;;
49948;SDS011;35840;45.982;8.890;2023-07-13T05:20:15;6.40;;;2.38;;
49948;SDS011;35840;45.982;8.890;2023-07-13T05:22:44;13.00;;;2.35;;
49948;SDS011;35840;45.982;8.890;2023-07-13T05:25:13;3.45;;;2.55;;
49948;SDS011;35840;45.982;8.890;2023-07-13T05:27:40;3.38;;;2.03;;
49948;SDS011;35840;45.982;8.890;2023-07-13T05:30:07;3.80;;;2.17;;
49948;SDS011;35840;45.982;8.890;2023-07-13T05:32:37;9.02;;;2.13;;
49948;SDS011;35840;45.982;8.890;2023-07-13T05:35:05;2.72;;;1.90;;
49948;SDS011;35840;45.982;8.890;2023-07-13T05:37:32;6.32;;;2.10;;
49948;SDS011;35840;45.982;8.890;2023-07-13T05:39:59;6.32;;;2.78;;
49948;SDS011;35840;45.982;8.890;2023-07-13T05:42:26;5.15;;;2.00;;
49948;SDS011;35840;45.982;8.890;2023-07-13T05:44:53;2.22;;;1.77;;
49948;SDS011;35840;45.982;8.890;2023-07-13T05:47:20;3.28;;;2.08;;
49948;SDS011;35840;45.982;8.890;2023-07-13T05:49:47;7.30;;;2.88;;
49948;SDS011;35840;45.982;8.890;2023-07-13T05:52:13;4.68;;;1.95;;
49948;SDS011;35840;45.982;8.890;2023-07-13T05:54:40;2.45;;;2.25;;
49948;SDS011;35840;45.982;8.890;2023-07-13T05:57:07;2.53;;;2.33;;
49948;SDS011;35840;45.982;8.890;2023-07-13T05:59:35;5.75;;;2.30;;
49948;SDS011;35840;45.982;8.890;2023-07-13T06:02:02;3.58;;;1.98;;
49948;SDS011;35840;45.982;8.890;2023-07-13T06:04:28;3.47;;;2.00;;
49948;SDS011;35840;45.982;8.890;2023-07-13T06:06:55;2.17;;;1.48;;
49948;SDS011;35840;45.982;8.890;2023-07-13T06:09:22;4.32;;;1.73;;
49948;SDS011;35840;45.982;8.890;2023-07-13T06:11:49;2.47;;;1.60;;
49948;SDS011;35840;45.982;8.890;2023-07-13T06:14:15;3.97;;;1.67;;
49948;SDS011;35840;45.982;8.890;2023-07-13T06:16:42;3.30;;;1.90;;
49948;SDS011;35840;45.982;8.890;2023-07-13T06:19:09;8.75;;;2.80;;
49948;SDS011;35840;45.982;8.890;2023-07-13T06:21:35;3.78;;;2.17;;
49948;SDS011;35840;45.982;8.890;2023-07-13T06:24:02;3.33;;;1.95;;
49948;SDS011;35840;45.982;8.890;2023-07-13T06:26:29;2.33;;;1.90;;
49948;SDS011;35840;45.982;8.890;2023-07-13T06:28:56;2.17;;;1.80;;
49948;SDS011;35840;45.982;8.890;2023-07-13T06:31:23;1.92;;;1.67;;
49948;SDS011;35840;45.982;8.890;2023-07-13T06:33:50;3.53;;;1.92;;
49948;SDS011;35840;45.982;8.890;2023-07-13T06:36:16;4.32;;;2.30;;
49948;SDS011;35840;45.982;8.890;2023-07-13T06:38:43;6.25;;;2.10;;
49948;SDS011;35840;45.982;8.890;2023-07-13T06:41:10;1.83;;;1.42;;
49948;SDS011;35840;45.982;8.890;2023-07-13T06:43:37;4.38;;;2.28;;
49948;SDS011;35840;45.982;8.890;2023-07-13T06:46:04;2.67;;;1.88;;
49948;SDS011;35840;45.982;8.890;2023-07-13T06:48:31;2.55;;;1.63;;
49948;SDS011;35840;45.982;8.890;2023-07-13T06:50:58;3.17;;;1.80;;
49948;SDS011;35840;45.982;8.890;2023-07-13T06:53:24;4.07;;;1.98;;
49948;SDS011;35840;45.982;8.890;2023-07-13T06:55:51;2.13;;;1.92;;
49948;SDS011;35840;45.982;8.890;2023-07-13T06:58:18;5.85;;;2.38;;
49948;SDS011;35840;45.982;8.890;2023-07-13T07:00:46;5.80;;;2.22;;
49948;SDS011;35840;45.982;8.890;2023-07-13T07:03:16;3.33;;;2.33;;
49948;SDS011;35840;45.982;8.890;2023-07-13T07:05:43;4.25;;;1.98;;
49948;SDS011;35840;45.982;8.890;2023-07-13T07:08:10;2.20;;;1.90;;
49948;SDS011;35840;45.982;8.890;2023-07-13T07:10:37;6.30;;;1.70;;
49948;SDS011;35840;45.982;8.890;2023-07-13T07:13:04;3.95;;;3.33;;
49948;SDS011;35840;45.982;8.890;2023-07-13T07:15:30;4.40;;;2.50;;
49948;SDS011;35840;45.982;8.890;2023-07-13T07:17:57;4.30;;;1.90;;
49948;SDS011;35840;45.982;8.890;2023-07-13T07:20:24;4.25;;;1.80;;
49948;SDS011;35840;45.982;8.890;2023-07-13T07:22:51;4.20;;;1.95;;
49948;SDS011;35840;45.982;8.890;2023-07-13T07:25:18;3.08;;;1.80;;
49948;SDS011;35840;45.982;8.890;2023-07-13T07:27:45;6.78;;;2.20;;
49948;SDS011;35840;45.982;8.890;2023-07-13T07:30:14;3.45;;;1.77;;
49948;SDS011;35840;45.982;8.890;2023-07-13T07:32:44;3.72;;;1.70;;
49948;SDS011;35840;45.982;8.890;2023-07-13T07:35:14;3.88;;;2.13;;
49948;SDS011;35840;45.982;8.890;2023-07-13T07:37:41;3.83;;;2.00;;
49948;SDS011;35840;45.982;8.890;2023-07-13T07:40:10;3.22;;;1.80;;
49948;SDS011;35840;45.982;8.890;2023-07-13T07:42:40;4.65;;;1.50;;
49948;SDS011;35840;45.982;8.890;2023-07-13T07:45:07;4.40;;;1.42;;
49948;SDS011;35840;45.982;8.890;2023-07-13T07:47:34;7.03;;;2.63;;
49948;SDS011;35840;45.982;8.890;2023-07-13T07:50:01;6.43;;;2.00;;
49948;SDS011;35840;45.982;8.890;2023-07-13T07:52:27;1.65;;;1.30;;
49948;SDS011;35840;45.982;8.890;2023-07-13T07:54:54;1.95;;;1.58;;
49948;SDS011;35840;45.982;8.890;2023-07-13T07:57:24;7.22;;;1.88;;
49948;SDS011;35840;45.982;8.890;2023-07-13T07:59:53;4.88;;;1.77;;
49948;SDS011;35840;45.982;8.890;2023-07-13T08:02:24;2.25;;;1.40;;
49948;SDS011;35840;45.982;8.890;2023-07-13T08:04:54;3.47;;;1.60;;
49948;SDS011;35840;45.982;8.890;2023-07-13T08:07:23;7.15;;;1.60;;
49948;SDS011;35840;45.982;8.890;2023-07-13T08:09:53;2.45;;;1.65;;
49948;SDS011;35840;45.982;8.890;2023-07-13T08:12:20;4.63;;;1.73;;
49948;SDS011;35840;45.982;8.890;2023-07-13T08:14:50;6.40;;;2.47;;
49948;SDS011;35840;45.982;8.890;2023-07-13T08:17:20;3.42;;;1.90;;
49948;SDS011;35840;45.982;8.890;2023-07-13T08:19:47;1.65;;;1.50;;
49948;SDS011;35840;45.982;8.890;2023-07-13T08:22:14;2.25;;;1.70;;
49948;SDS011;35840;45.982;8.890;2023-07-13T08:24:41;4.45;;;1.77;;
49948;SDS011;35840;45.982;8.890;2023-07-13T08:27:11;2.80;;;1.63;;
49948;SDS011;35840;45.982;8.890;2023-07-13T08:29:38;4.97;;;2.05;;
49948;SDS011;35840;45.982;8.890;2023-07-13T08:32:06;2.08;;;1.40;;
49948;SDS011;35840;45.982;8.890;2023-07-13T08:34:37;3.38;;;1.42;;
49948;SDS011;35840;45.982;8.890;2023-07-13T08:37:07;1.90;;;1.45;;
49948;SDS011;35840;45.982;8.890;2023-07-13T08:39:33;2.97;;;1.40;;
49948;SDS011;35840;45.982;8.890;2023-07-13T08:42:03;4.63;;;1.70;;
49948;SDS011;35840;45.982;8.890;2023-07-13T08:44:40;3.17;;;1.75;;
49948;SDS011;35840;45.982;8.890;2023-07-13T08:47:14;2.55;;;1.45;;
49948;SDS011;35840;45.982;8.890;2023-07-13T08:49:43;2.30;;;1.50;;
49948;SDS011;35840;45.982;8.890;2023-07-13T08:52:13;2.47;;;1.52;;
49948;SDS011;35840;45.982;8.890;2023-07-13T08:54:49;5.45;;;1.60;;
49948;SDS011;35840;45.982;8.890;2023-07-13T08:57:20;3.38;;;1.77;;
49948;SDS011;35840;45.982;8.890;2023-07-13T08:59:50;4.68;;;1.80;;
49948;SDS011;35840;45.982;8.890;2023-07-13T09:02:27;4.43;;;1.75;;
49948;SDS011;35840;45.982;8.890;2023-07-13T09:05:10;2.05;;;1.60;;
49948;SDS011;35840;45.982;8.890;2023-07-13T09:07:55;1.70;;;1.58;;
49948;SDS011;35840;45.982;8.890;2023-07-13T09:10:35;3.58;;;1.92;;
49948;SDS011;35840;45.982;8.890;2023-07-13T09:15:44;4.75;;;1.75;;
49948;SDS011;35840;45.982;8.890;2023-07-13T09:23:40;2.50;;;1.55;;
49948;SDS011;35840;45.982;8.890;2023-07-13T09:26:17;1.98;;;1.55;;
49948;SDS011;35840;45.982;8.890;2023-07-13T09:28:51;1.67;;;1.52;;
49948;SDS011;35840;45.982;8.890;2023-07-13T09:31:43;1.73;;;1.30;;
49948;SDS011;35840;45.982;8.890;2023-07-13T09:34:14;2.58;;;1.40;;
49948;SDS011;35840;45.982;8.890;2023-07-13T09:36:41;2.85;;;1.60;;
49948;SDS011;35840;45.982;8.890;2023-07-13T09:46:57;3.67;;;1.70;;
49948;SDS011;35840;45.982;8.890;2023-07-13T09:49:42;5.78;;;1.77;;
49948;SDS011;35840;45.982;8.890;2023-07-13T09:52:14;4.10;;;1.60;;
49948;SDS011;35840;45.982;8.890;2023-07-13T09:54:46;2.15;;;1.42;;
49948;SDS011;35840;45.982;8.890;2023-07-13T09:57:16;1.98;;;1.50;;
49948;SDS011;35840;45.982;8.890;2023-07-13T09:59:49;2.33;;;1.55;;
49948;SDS011;35840;45.982;8.890;2023-07-13T10:04:59;4.45;;;2.45;;
49948;SDS011;35840;45.982;8.890;2023-07-13T10:07:30;2.20;;;2.00;;
49948;SDS011;35840;45.982;8.890;2023-07-13T10:09:59;2.22;;;1.88;;
49948;SDS011;35840;45.982;8.890;2023-07-13T10:12:28;4.53;;;2.10;;
49948;SDS011;35840;45.982;8.890;2023-07-13T10:15:01;8.35;;;2.33;;
49948;SDS011;35840;45.982;8.890;2023-07-13T10:17:48;5.15;;;2.10;;
49948;SDS011;35840;45.982;8.890;2023-07-13T10:20:17;4.15;;;1.88;;
49948;SDS011;35840;45.982;8.890;2023-07-13T10:25:26;5.72;;;2.35;;
49948;SDS011;35840;45.982;8.890;2023-07-13T10:28:00;7.43;;;2.33;;
49948;SDS011;35840;45.982;8.890;2023-07-13T10:30:33;3.42;;;2.20;;
49948;SDS011;35840;45.982;8.890;2023-07-13T10:33:10;7.70;;;2.42;;
49948;SDS011;35840;45.982;8.890;2023-07-13T10:35:40;4.10;;;2.03;;
49948;SDS011;35840;45.982;8.890;2023-07-13T10:38:18;4.85;;;2.38;;
49948;SDS011;35840;45.982;8.890;2023-07-13T10:41:01;5.07;;;2.30;;
49948;SDS011;35840;45.982;8.890;2023-07-13T10:43:34;3.83;;;2.58;;
49948;SDS011;35840;45.982;8.890;2023-07-13T10:46:06;3.80;;;2.45;;
49948;SDS011;35840;45.982;8.890;2023-07-13T10:48:35;3.80;;;2.00;;
49948;SDS011;35840;45.982;8.890;2023-07-13T10:51:03;4.05;;;2.55;;
49948;SDS011;35840;45.982;8.890;2023-07-13T10:53:34;4.43;;;2.90;;
49948;SDS011;35840;45.982;8.890;2023-07-13T10:56:03;4.95;;;2.30;;
49948;SDS011;35840;45.982;8.890;2023-07-13T10:58:38;6.07;;;2.90;;
49948;SDS011;35840;45.982;8.890;2023-07-13T11:01:16;7.18;;;3.72;;
49948;SDS011;35840;45.982;8.890;2023-07-13T11:03:49;4.82;;;2.95;;
49948;SDS011;35840;45.982;8.890;2023-07-13T11:06:34;4.85;;;2.60;;
49948;SDS011;35840;45.982;8.890;2023-07-13T11:09:29;9.48;;;2.83;;
49948;SDS011;35840;45.982;8.890;2023-07-13T11:12:01;7.88;;;3.00;;
49948;SDS011;35840;45.982;8.890;2023-07-13T11:14:59;9.65;;;3.13;;
49948;SDS011;35840;45.982;8.890;2023-07-13T11:17:37;4.32;;;3.47;;
49948;SDS011;35840;45.982;8.890;2023-07-13T11:22:49;4.57;;;1.77;;
49948;SDS011;35840;45.982;8.890;2023-07-13T11:25:25;4.15;;;1.83;;
49948;SDS011;35840;45.982;8.890;2023-07-13T11:38:27;2.47;;;1.88;;
49948;SDS011;35840;45.982;8.890;2023-07-13T11:41:01;3.58;;;1.90;;
49948;SDS011;35840;45.982;8.890;2023-07-13T11:43:30;3.40;;;2.38;;
49948;SDS011;35840;45.982;8.890;2023-07-13T11:46:13;5.60;;;2.30;;
49948;SDS011;35840;45.982;8.890;2023-07-13T11:48:57;2.17;;;1.88;;
49948;SDS011;35840;45.982;8.890;2023-07-13T11:51:31;4.57;;;2.17;;
49948;SDS011;35840;45.982;8.890;2023-07-13T11:54:03;4.05;;;2.00;;
49948;SDS011;35840;45.982;8.890;2023-07-13T11:56:34;3.55;;;2.50;;
49948;SDS011;35840;45.982;8.890;2023-07-13T11:59:06;4.07;;;2.50;;
49948;SDS011;35840;45.982;8.890;2023-07-13T12:01:34;6.72;;;2.53;;
49948;SDS011;35840;45.982;8.890;2023-07-13T12:04:08;5.03;;;2.42;;
49948;SDS011;35840;45.982;8.890;2023-07-13T12:07:03;3.58;;;2.47;;
49948;SDS011;35840;45.982;8.890;2023-07-13T12:09:36;4.80;;;2.67;;
49948;SDS011;35840;45.982;8.890;2023-07-13T12:12:03;3.50;;;2.58;;
49948;SDS011;35840;45.982;8.890;2023-07-13T12:14:36;5.38;;;2.30;;
49948;SDS011;35840;45.982;8.890;2023-07-13T12:17:04;3.60;;;2.45;;
49948;SDS011;35840;45.982;8.890;2023-07-13T12:19:40;2.42;;;1.95;;
49948;SDS011;35840;45.982;8.890;2023-07-13T12:22:08;3.55;;;2.40;;
49948;SDS011;35840;45.982;8.890;2023-07-13T12:24:38;6.63;;;2.40;;
49948;SDS011;35840;45.982;8.890;2023-07-13T12:27:21;3.55;;;2.30;;
49948;SDS011;35840;45.982;8.890;2023-07-13T12:32:25;2.65;;;2.25;;
49948;SDS011;35840;45.982;8.890;2023-07-13T12:34:57;4.82;;;2.28;;
49948;SDS011;35840;45.982;8.890;2023-07-13T12:37:45;4.70;;;2.47;;
49948;SDS011;35840;45.982;8.890;2023-07-13T12:40:14;2.20;;;1.80;;
49948;SDS011;35840;45.982;8.890;2023-07-13T12:42:49;2.53;;;2.20;;
49948;SDS011;35840;45.982;8.890;2023-07-13T12:45:21;3.13;;;1.88;;
49948;SDS011;35840;45.982;8.890;2023-07-13T12:47:55;3.28;;;1.70;;
49948;SDS011;35840;45.982;8.890;2023-07-13T12:50:30;3.92;;;2.47;;
49948;SDS011;35840;45.982;8.890;2023-07-13T12:53:03;2.25;;;1.50;;
49948;SDS011;35840;45.982;8.890;2023-07-13T12:55:45;3.13;;;1.80;;
49948;SDS011;35840;45.982;8.890;2023-07-13T12:58:36;2.10;;;1.40;;
49948;SDS011;35840;45.982;8.890;2023-07-13T13:01:05;2.03;;;1.52;;
49948;SDS011;35840;45.982;8.890;2023-07-13T13:03:33;3.25;;;1.27;;
49948;SDS011;35840;45.982;8.890;2023-07-13T13:08:45;2.80;;;1.48;;
49948;SDS011;35840;45.982;8.890;2023-07-13T13:11:15;1.40;;;1.27;;
49948;SDS011;35840;45.982;8.890;2023-07-13T13:13:43;4.10;;;1.88;;
49948;SDS011;35840;45.982;8.890;2023-07-13T13:16:23;4.13;;;1.55;;
49948;SDS011;35840;45.982;8.890;2023-07-13T13:18:53;2.08;;;1.20;;
49948;SDS011;35840;45.982;8.890;2023-07-13T13:21:23;3.85;;;1.27;;
49948;SDS011;35840;45.982;8.890;2023-07-13T13:23:52;1.88;;;1.23;;
49948;SDS011;35840;45.982;8.890;2023-07-13T13:26:21;2.20;;;1.33;;
49948;SDS011;35840;45.982;8.890;2023-07-13T13:28:48;2.03;;;1.80;;
49948;SDS011;35840;45.982;8.890;2023-07-13T13:31:15;3.85;;;1.30;;
49948;SDS011;35840;45.982;8.890;2023-07-13T13:33:43;3.03;;;1.35;;
49948;SDS011;35840;45.982;8.890;2023-07-13T13:36:16;3.63;;;1.25;;
49948;SDS011;35840;45.982;8.890;2023-07-13T13:38:45;2.60;;;1.40;;
49948;SDS011;35840;45.982;8.890;2023-07-13T13:41:14;1.42;;;1.30;;
49948;SDS011;35840;45.982;8.890;2023-07-13T13:43:42;2.20;;;1.35;;
49948;SDS011;35840;45.982;8.890;2023-07-13T13:46:17;1.48;;;1.25;;
49948;SDS011;35840;45.982;8.890;2023-07-13T13:48:47;1.85;;;1.67;;
49948;SDS011;35840;45.982;8.890;2023-07-13T13:51:19;2.95;;;1.10;;
49948;SDS011;35840;45.982;8.890;2023-07-13T13:53:48;8.93;;;1.30;;
49948;SDS011;35840;45.982;8.890;2023-07-13T13:56:15;1.35;;;1.25;;
49948;SDS011;35840;45.982;8.890;2023-07-13T13:58:44;2.28;;;1.33;;
49948;SDS011;35840;45.982;8.890;2023-07-13T14:01:16;2.10;;;1.30;;
49948;SDS011;35840;45.982;8.890;2023-07-13T14:03:45;1.58;;;1.35;;
49948;SDS011;35840;45.982;8.890;2023-07-13T14:06:12;3.88;;;1.50;;
49948;SDS011;35840;45.982;8.890;2023-07-13T14:08:40;3.25;;;1.30;;
49948;SDS011;35840;45.982;8.890;2023-07-13T14:11:14;1.25;;;1.20;;
49948;SDS011;35840;45.982;8.890;2023-07-13T14:13:44;1.65;;;1.30;;
49948;SDS011;35840;45.982;8.890;2023-07-13T14:16:16;4.40;;;1.48;;
49948;SDS011;35840;45.982;8.890;2023-07-13T14:18:44;3.08;;;1.70;;
49948;SDS011;35840;45.982;8.890;2023-07-13T14:21:16;2.78;;;1.50;;
49948;SDS011;35840;45.982;8.890;2023-07-13T14:23:45;2.85;;;1.27;;
49948;SDS011;35840;45.982;8.890;2023-07-13T14:26:17;1.83;;;1.20;;
49948;SDS011;35840;45.982;8.890;2023-07-13T14:28:47;2.22;;;1.83;;
49948;SDS011;35840;45.982;8.890;2023-07-13T14:31:16;2.55;;;1.60;;
49948;SDS011;35840;45.982;8.890;2023-07-13T14:33:44;2.47;;;1.10;;
49948;SDS011;35840;45.982;8.890;2023-07-13T14:36:23;1.67;;;1.25;;
49948;SDS011;35840;45.982;8.890;2023-07-13T14:38:54;1.25;;;1.10;;
49948;SDS011;35840;45.982;8.890;2023-07-13T14:41:22;2.03;;;1.20;;
49948;SDS011;35840;45.982;8.890;2023-07-13T14:43:49;1.17;;;1.08;;
49948;SDS011;35840;45.982;8.890;2023-07-13T14:46:49;1.70;;;1.50;;
49948;SDS011;35840;45.982;8.890;2023-07-13T14:49:23;2.42;;;1.42;;
49948;SDS011;35840;45.982;8.890;2023-07-13T14:51:52;1.23;;;1.13;;
49948;SDS011;35840;45.982;8.890;2023-07-13T14:54:21;2.15;;;1.70;;
49948;SDS011;35840;45.982;8.890;2023-07-13T14:56:48;2.10;;;1.20;;
49948;SDS011;35840;45.982;8.890;2023-07-13T14:59:15;2.42;;;1.60;;
49948;SDS011;35840;45.982;8.890;2023-07-13T15:01:42;1.88;;;1.30;;
49948;SDS011;35840;45.982;8.890;2023-07-13T15:04:08;1.65;;;1.33;;
49948;SDS011;35840;45.982;8.890;2023-07-13T15:06:55;3.97;;;1.35;;
49948;SDS011;35840;45.982;8.890;2023-07-13T15:09:26;3.08;;;1.42;;
49948;SDS011;35840;45.982;8.890;2023-07-13T15:11:56;2.53;;;1.30;;
49948;SDS011;35840;45.982;8.890;2023-07-13T15:14:24;2.35;;;1.30;;
49948;SDS011;35840;45.982;8.890;2023-07-13T15:16:52;2.33;;;1.50;;
49948;SDS011;35840;45.982;8.890;2023-07-13T15:19:22;3.30;;;1.10;;
49948;SDS011;35840;45.982;8.890;2023-07-13T15:21:50;2.03;;;1.35;;
49948;SDS011;35840;45.982;8.890;2023-07-13T15:24:18;1.65;;;1.55;;
49948;SDS011;35840;45.982;8.890;2023-07-13T15:26:47;1.90;;;1.35;;
49948;SDS011;35840;45.982;8.890;2023-07-13T15:29:15;1.20;;;1.10;;
49948;SDS011;35840;45.982;8.890;2023-07-13T15:31:43;1.90;;;1.27;;
49948;SDS011;35840;45.982;8.890;2023-07-13T15:34:12;4.15;;;1.52;;
49948;SDS011;35840;45.982;8.890;2023-07-13T15:36:41;3.67;;;1.27;;
49948;SDS011;35840;45.982;8.890;2023-07-13T15:39:08;5.03;;;1.50;;
49948;SDS011;35840;45.982;8.890;2023-07-13T15:41:41;1.35;;;1.13;;
49948;SDS011;35840;45.982;8.890;2023-07-13T15:44:23;2.25;;;1.73;;
49948;SDS011;35840;45.982;8.890;2023-07-13T15:46:53;1.70;;;1.60;;